sensor_id;sensor_type;location;lat;lon;timestamp;temperature;humidity
50067;DHT22;35952;52.524;13.340;2022-12-07T00:01:23;3.60;99.90
50067;DHT22;35952;52.524;13.340;2022-12-07T00:03:52;3.50;99.90
50067;DHT22;35952;52.524;13.340;2022-12-07T00:06:19;3.40;99.90
50067;DHT22;35952;52.524;13.340;2022-12-07T00:08:45;3.40;99.90
50067;DHT22;35952;52.524;13.340;2022-12-07T00:11:17;3.40;99.90
50067;DHT22;35952;52.524;13.340;2022-12-07T00:13:43;3.40;99.90
50067;DHT22;35952;52.524;13.340;2022-12-07T00:16:14;3.40;99.90
50067;DHT22;35952;52.524;13.340;2022-12-07T00:18:41;3.40;99.90
50067;DHT22;35952;52.524;13.340;2022-12-07T00:21:10;3.30;99.90
50067;DHT22;35952;52.524;13.340;2022-12-07T00:23:36;3.30;99.90
50067;DHT22;35952;52.524;13.340;2022-12-07T00:26:19;3.30;99.90
50067;DHT22;35952;52.524;13.340;2022-12-07T00:28:50;3.30;99.90
50067;DHT22;35952;52.524;13.340;2022-12-07T00:31:19;3.30;99.90
50067;DHT22;35952;52.524;13.340;2022-12-07T00:33:45;3.30;99.90
50067;DHT22;35952;52.524;13.340;2022-12-07T00:36:13;3.30;99.90
50067;DHT22;35952;52.524;13.340;2022-12-07T00:38:39;3.20;99.90
50067;DHT22;35952;52.524;13.340;2022-12-07T00:41:11;3.20;99.90
50067;DHT22;35952;52.524;13.340;2022-12-07T00:43:37;3.20;99.90
50067;DHT22;35952;52.524;13.340;2022-12-07T00:46:03;3.10;99.90
50067;DHT22;35952;52.524;13.340;2022-12-07T00:48:28;3.10;99.90
50067;DHT22;35952;52.524;13.340;2022-12-07T00:50:54;3.00;99.90
50067;DHT22;35952;52.524;13.340;2022-12-07T00:53:20;3.00;99.90
50067;DHT22;35952;52.524;13.340;2022-12-07T00:55:46;2.90;99.90
50067;DHT22;35952;52.524;13.340;2022-12-07T00:58:11;2.90;99.90
50067;DHT22;35952;52.524;13.340;2022-12-07T01:00:39;2.80;99.90
50067;DHT22;35952;52.524;13.340;2022-12-07T01:03:06;2.80;99.90
50067;DHT22;35952;52.524;13.340;2022-12-07T01:05:32;2.80;99.90
50067;DHT22;35952;52.524;13.340;2022-12-07T01:07:57;2.80;99.90
50067;DHT22;35952;52.524;13.340;2022-12-07T01:10:23;2.80;99.90
50067;DHT22;35952;52.524;13.340;2022-12-07T01:12:48;2.80;99.90
50067;DHT22;35952;52.524;13.340;2022-12-07T01:15:14;2.90;99.90
50067;DHT22;35952;52.524;13.340;2022-12-07T01:17:40;2.90;99.90
50067;DHT22;35952;52.524;13.340;2022-12-07T01:20:06;2.90;99.90
50067;DHT22;35952;52.524;13.340;2022-12-07T01:22:39;2.90;99.90
50067;DHT22;35952;52.524;13.340;2022-12-07T01:25:07;2.90;99.90
50067;DHT22;35952;52.524;13.340;2022-12-07T01:27:33;2.90;99.90
50067;DHT22;35952;52.524;13.340;2022-12-07T01:30:00;2.90;99.90
50067;DHT22;35952;52.524;13.340;2022-12-07T01:32:26;2.90;99.90
50067;DHT22;35952;52.524;13.340;2022-12-07T01:34:51;2.90;99.90
50067;DHT22;35952;52.524;13.340;2022-12-07T01:37:17;2.90;99.90
50067;DHT22;35952;52.524;13.340;2022-12-07T01:39:42;2.90;99.90
50067;DHT22;35952;52.524;13.340;2022-12-07T01:42:11;2.90;99.90
50067;DHT22;35952;52.524;13.340;2022-12-07T01:47:41;2.90;99.90
50067;DHT22;35952;52.524;13.340;2022-12-07T01:50:08;2.90;99.90
50067;DHT22;35952;52.524;13.340;2022-12-07T01:52:36;2.90;99.90
50067;DHT22;35952;52.524;13.340;2022-12-07T01:55:08;2.90;99.90
50067;DHT22;35952;52.524;13.340;2022-12-07T01:57:38;2.90;99.90
50067;DHT22;35952;52.524;13.340;2022-12-07T02:00:06;2.90;99.90
50067;DHT22;35952;52.524;13.340;2022-12-07T02:02:39;3.00;99.90
50067;DHT22;35952;52.524;13.340;2022-12-07T02:05:07;3.00;99.90
50067;DHT22;35952;52.524;13.340;2022-12-07T02:07:34;3.00;99.90
50067;DHT22;35952;52.524;13.340;2022-12-07T02:10:22;2.90;99.90
50067;DHT22;35952;52.524;13.340;2022-12-07T02:21:13;2.80;99.90
50067;DHT22;35952;52.524;13.340;2022-12-07T02:26:48;2.70;99.90
50067;DHT22;35952;52.524;13.340;2022-12-07T02:29:24;2.70;99.90
50067;DHT22;35952;52.524;13.340;2022-12-07T02:32:01;2.70;99.90
50067;DHT22;35952;52.524;13.340;2022-12-07T02:34:39;2.70;99.90
50067;DHT22;35952;52.524;13.340;2022-12-07T02:37:19;2.70;99.90
50067;DHT22;35952;52.524;13.340;2022-12-07T02:39:59;2.60;99.90
50067;DHT22;35952;52.524;13.340;2022-12-07T02:42:35;2.60;99.90
50067;DHT22;35952;52.524;13.340;2022-12-07T02:45:02;2.60;99.90
50067;DHT22;35952;52.524;13.340;2022-12-07T02:47:29;2.60;99.90
50067;DHT22;35952;52.524;13.340;2022-12-07T02:49:57;2.60;99.90
50067;DHT22;35952;52.524;13.340;2022-12-07T02:52:22;2.60;99.90
50067;DHT22;35952;52.524;13.340;2022-12-07T02:54:48;2.60;99.90
50067;DHT22;35952;52.524;13.340;2022-12-07T03:00:00;2.40;99.90
50067;DHT22;35952;52.524;13.340;2022-12-07T03:02:32;2.40;99.90
50067;DHT22;35952;52.524;13.340;2022-12-07T03:10:40;2.60;99.90
50067;DHT22;35952;52.524;13.340;2022-12-07T03:15:49;2.60;99.90
50067;DHT22;35952;52.524;13.340;2022-12-07T03:18:19;2.60;99.90
50067;DHT22;35952;52.524;13.340;2022-12-07T03:20:49;2.60;99.90
50067;DHT22;35952;52.524;13.340;2022-12-07T03:23:18;2.70;99.90
50067;DHT22;35952;52.524;13.340;2022-12-07T03:25:49;2.70;99.90
50067;DHT22;35952;52.524;13.340;2022-12-07T03:28:18;2.70;99.90
50067;DHT22;35952;52.524;13.340;2022-12-07T03:30:46;2.70;99.90
50067;DHT22;35952;52.524;13.340;2022-12-07T03:33:20;2.40;99.90
50067;DHT22;35952;52.524;13.340;2022-12-07T03:36:19;2.30;99.90
50067;DHT22;35952;52.524;13.340;2022-12-07T03:38:49;2.60;99.90
50067;DHT22;35952;52.524;13.340;2022-12-07T03:41:21;2.70;99.90
50067;DHT22;35952;52.524;13.340;2022-12-07T03:43:48;2.70;99.90
50067;DHT22;35952;52.524;13.340;2022-12-07T03:49:19;2.80;99.90
50067;DHT22;35952;52.524;13.340;2022-12-07T03:54:41;2.60;99.90
50067;DHT22;35952;52.524;13.340;2022-12-07T03:57:09;2.80;99.90
50067;DHT22;35952;52.524;13.340;2022-12-07T03:59:37;2.80;99.90
50067;DHT22;35952;52.524;13.340;2022-12-07T04:02:05;2.60;99.90
50067;DHT22;35952;52.524;13.340;2022-12-07T04:04:31;2.80;99.90
50067;DHT22;35952;52.524;13.340;2022-12-07T04:06:57;2.70;99.90
50067;DHT22;35952;52.524;13.340;2022-12-07T04:09:23;2.80;99.90
50067;DHT22;35952;52.524;13.340;2022-12-07T04:11:48;2.70;99.90
50067;DHT22;35952;52.524;13.340;2022-12-07T04:14:14;2.80;99.90
50067;DHT22;35952;52.524;13.340;2022-12-07T04:16:51;2.70;99.90
50067;DHT22;35952;52.524;13.340;2022-12-07T04:19:18;2.80;99.90
50067;DHT22;35952;52.524;13.340;2022-12-07T04:21:44;2.60;99.90
50067;DHT22;35952;52.524;13.340;2022-12-07T04:24:12;2.80;99.90
50067;DHT22;35952;52.524;13.340;2022-12-07T04:26:38;2.60;99.90
50067;DHT22;35952;52.524;13.340;2022-12-07T04:29:04;2.60;99.90
50067;DHT22;35952;52.524;13.340;2022-12-07T04:31:30;2.60;99.90
50067;DHT22;35952;52.524;13.340;2022-12-07T04:33:55;2.70;99.90
50067;DHT22;35952;52.524;13.340;2022-12-07T04:36:21;2.70;99.90
50067;DHT22;35952;52.524;13.340;2022-12-07T04:38:47;2.70;99.90
50067;DHT22;35952;52.524;13.340;2022-12-07T04:41:13;2.60;99.90
50067;DHT22;35952;52.524;13.340;2022-12-07T04:43:38;2.80;99.90
50067;DHT22;35952;52.524;13.340;2022-12-07T04:46:04;2.70;99.90
50067;DHT22;35952;52.524;13.340;2022-12-07T04:48:29;2.60;99.90
50067;DHT22;35952;52.524;13.340;2022-12-07T04:50:55;2.70;99.90
50067;DHT22;35952;52.524;13.340;2022-12-07T04:53:21;2.80;99.90
50067;DHT22;35952;52.524;13.340;2022-12-07T04:55:46;2.80;99.90
50067;DHT22;35952;52.524;13.340;2022-12-07T04:58:12;2.80;99.90
50067;DHT22;35952;52.524;13.340;2022-12-07T05:00:38;2.80;99.90
50067;DHT22;35952;52.524;13.340;2022-12-07T05:03:04;2.80;99.90
50067;DHT22;35952;52.524;13.340;2022-12-07T05:05:29;2.90;99.90
50067;DHT22;35952;52.524;13.340;2022-12-07T05:07:55;3.00;99.90
50067;DHT22;35952;52.524;13.340;2022-12-07T05:10:20;3.00;99.90
50067;DHT22;35952;52.524;13.340;2022-12-07T05:12:46;3.00;99.90
50067;DHT22;35952;52.524;13.340;2022-12-07T05:15:13;3.10;99.90
50067;DHT22;35952;52.524;13.340;2022-12-07T05:17:40;3.10;99.90
50067;DHT22;35952;52.524;13.340;2022-12-07T05:20:06;3.10;99.90
50067;DHT22;35952;52.524;13.340;2022-12-07T05:22:32;3.00;99.90
50067;DHT22;35952;52.524;13.340;2022-12-07T05:24:58;3.20;99.90
50067;DHT22;35952;52.524;13.340;2022-12-07T05:27:23;3.20;99.90
50067;DHT22;35952;52.524;13.340;2022-12-07T05:29:52;3.30;99.90
50067;DHT22;35952;52.524;13.340;2022-12-07T05:32:18;3.30;99.90
50067;DHT22;35952;52.524;13.340;2022-12-07T05:34:43;3.30;99.90
50067;DHT22;35952;52.524;13.340;2022-12-07T05:37:09;3.30;99.90
50067;DHT22;35952;52.524;13.340;2022-12-07T05:39:34;3.40;99.90
50067;DHT22;35952;52.524;13.340;2022-12-07T05:42:00;3.40;99.90
50067;DHT22;35952;52.524;13.340;2022-12-07T05:44:39;3.40;99.90
50067;DHT22;35952;52.524;13.340;2022-12-07T05:47:04;3.40;99.90
50067;DHT22;35952;52.524;13.340;2022-12-07T05:49:30;3.40;99.90
50067;DHT22;35952;52.524;13.340;2022-12-07T05:51:56;3.40;99.90
50067;DHT22;35952;52.524;13.340;2022-12-07T05:54:21;3.50;99.90
50067;DHT22;35952;52.524;13.340;2022-12-07T05:56:47;3.50;99.90
50067;DHT22;35952;52.524;13.340;2022-12-07T05:59:12;3.40;99.90
50067;DHT22;35952;52.524;13.340;2022-12-07T06:02:13;3.40;99.90
50067;DHT22;35952;52.524;13.340;2022-12-07T06:04:41;3.50;99.90
50067;DHT22;35952;52.524;13.340;2022-12-07T06:07:08;3.60;99.90
50067;DHT22;35952;52.524;13.340;2022-12-07T06:09:34;3.60;99.90
50067;DHT22;35952;52.524;13.340;2022-12-07T06:12:00;3.60;99.90
50067;DHT22;35952;52.524;13.340;2022-12-07T06:14:44;3.60;99.90
50067;DHT22;35952;52.524;13.340;2022-12-07T06:17:11;3.50;99.90
50067;DHT22;35952;52.524;13.340;2022-12-07T06:19:38;3.60;99.90
50067;DHT22;35952;52.524;13.340;2022-12-07T06:22:04;3.70;99.90
50067;DHT22;35952;52.524;13.340;2022-12-07T06:24:31;3.70;99.90
50067;DHT22;35952;52.524;13.340;2022-12-07T06:26:56;3.70;99.90
50067;DHT22;35952;52.524;13.340;2022-12-07T06:29:22;3.70;99.90
50067;DHT22;35952;52.524;13.340;2022-12-07T06:31:48;3.60;99.90
50067;DHT22;35952;52.524;13.340;2022-12-07T06:34:16;3.70;99.90
50067;DHT22;35952;52.524;13.340;2022-12-07T06:36:42;3.60;99.90
50067;DHT22;35952;52.524;13.340;2022-12-07T06:39:08;3.60;99.90
50067;DHT22;35952;52.524;13.340;2022-12-07T06:41:38;3.60;99.90
50067;DHT22;35952;52.524;13.340;2022-12-07T06:44:07;3.60;99.90
50067;DHT22;35952;52.524;13.340;2022-12-07T06:46:32;3.60;99.90
50067;DHT22;35952;52.524;13.340;2022-12-07T06:48:58;3.70;99.90
50067;DHT22;35952;52.524;13.340;2022-12-07T06:51:24;3.70;99.90
50067;DHT22;35952;52.524;13.340;2022-12-07T06:53:49;3.80;99.90
50067;DHT22;35952;52.524;13.340;2022-12-07T06:56:15;3.80;99.90
50067;DHT22;35952;52.524;13.340;2022-12-07T06:58:41;3.90;99.90
50067;DHT22;35952;52.524;13.340;2022-12-07T07:01:14;3.90;99.90
50067;DHT22;35952;52.524;13.340;2022-12-07T07:03:40;3.90;99.90
50067;DHT22;35952;52.524;13.340;2022-12-07T07:06:06;3.90;99.90
50067;DHT22;35952;52.524;13.340;2022-12-07T07:08:33;4.00;99.90
50067;DHT22;35952;52.524;13.340;2022-12-07T07:10:58;4.00;99.90
50067;DHT22;35952;52.524;13.340;2022-12-07T07:13:24;4.00;99.90
50067;DHT22;35952;52.524;13.340;2022-12-07T07:15:49;4.00;99.90
50067;DHT22;35952;52.524;13.340;2022-12-07T07:18:15;4.00;99.90
50067;DHT22;35952;52.524;13.340;2022-12-07T07:20:41;4.10;99.90
50067;DHT22;35952;52.524;13.340;2022-12-07T07:23:07;4.10;99.90
50067;DHT22;35952;52.524;13.340;2022-12-07T07:25:32;4.10;99.90
50067;DHT22;35952;52.524;13.340;2022-12-07T07:27:58;4.10;99.90
50067;DHT22;35952;52.524;13.340;2022-12-07T07:30:25;4.10;99.90
50067;DHT22;35952;52.524;13.340;2022-12-07T07:32:50;4.10;99.90
50067;DHT22;35952;52.524;13.340;2022-12-07T07:35:16;4.10;99.90
50067;DHT22;35952;52.524;13.340;2022-12-07T07:37:41;4.10;99.90
50067;DHT22;35952;52.524;13.340;2022-12-07T07:40:08;4.10;99.90
50067;DHT22;35952;52.524;13.340;2022-12-07T07:42:34;4.00;99.90
50067;DHT22;35952;52.524;13.340;2022-12-07T07:44:59;4.00;99.90
50067;DHT22;35952;52.524;13.340;2022-12-07T07:47:25;3.90;99.90
50067;DHT22;35952;52.524;13.340;2022-12-07T07:49:50;3.90;99.90
50067;DHT22;35952;52.524;13.340;2022-12-07T07:52:16;4.00;99.90
50067;DHT22;35952;52.524;13.340;2022-12-07T07:54:41;4.10;99.90
50067;DHT22;35952;52.524;13.340;2022-12-07T07:57:07;4.20;99.90
50067;DHT22;35952;52.524;13.340;2022-12-07T07:59:32;4.20;99.90
50067;DHT22;35952;52.524;13.340;2022-12-07T08:01:58;4.20;99.90
50067;DHT22;35952;52.524;13.340;2022-12-07T08:04:23;4.20;99.90
50067;DHT22;35952;52.524;13.340;2022-12-07T08:06:49;4.20;99.90
50067;DHT22;35952;52.524;13.340;2022-12-07T08:09:14;4.30;99.90
50067;DHT22;35952;52.524;13.340;2022-12-07T08:11:40;4.30;99.90
50067;DHT22;35952;52.524;13.340;2022-12-07T08:14:05;4.30;99.90
50067;DHT22;35952;52.524;13.340;2022-12-07T08:16:31;4.30;99.90
50067;DHT22;35952;52.524;13.340;2022-12-07T08:18:57;4.30;99.90
50067;DHT22;35952;52.524;13.340;2022-12-07T08:21:22;4.30;99.90
50067;DHT22;35952;52.524;13.340;2022-12-07T08:23:48;4.40;99.90
50067;DHT22;35952;52.524;13.340;2022-12-07T08:26:15;4.40;99.90
50067;DHT22;35952;52.524;13.340;2022-12-07T08:28:41;4.50;99.90
50067;DHT22;35952;52.524;13.340;2022-12-07T08:31:13;4.50;99.90
50067;DHT22;35952;52.524;13.340;2022-12-07T08:33:38;4.50;99.90
50067;DHT22;35952;52.524;13.340;2022-12-07T08:36:07;4.50;99.90
50067;DHT22;35952;52.524;13.340;2022-12-07T08:38:34;4.50;99.90
50067;DHT22;35952;52.524;13.340;2022-12-07T08:41:00;4.60;99.90
50067;DHT22;35952;52.524;13.340;2022-12-07T08:43:26;4.50;99.90
50067;DHT22;35952;52.524;13.340;2022-12-07T08:46:07;4.60;99.90
50067;DHT22;35952;52.524;13.340;2022-12-07T08:48:37;4.50;99.90
50067;DHT22;35952;52.524;13.340;2022-12-07T08:51:03;4.50;99.90
50067;DHT22;35952;52.524;13.340;2022-12-07T08:53:29;4.60;99.90
50067;DHT22;35952;52.524;13.340;2022-12-07T08:55:56;4.60;99.90
50067;DHT22;35952;52.524;13.340;2022-12-07T08:58:22;4.50;99.90
50067;DHT22;35952;52.524;13.340;2022-12-07T09:00:48;4.60;99.90
50067;DHT22;35952;52.524;13.340;2022-12-07T09:03:13;4.60;99.90
50067;DHT22;35952;52.524;13.340;2022-12-07T09:05:39;4.60;99.90
50067;DHT22;35952;52.524;13.340;2022-12-07T09:08:05;4.60;99.90
50067;DHT22;35952;52.524;13.340;2022-12-07T09:10:31;4.60;99.90
50067;DHT22;35952;52.524;13.340;2022-12-07T09:12:57;4.50;99.90
50067;DHT22;35952;52.524;13.340;2022-12-07T09:15:29;4.50;99.90
50067;DHT22;35952;52.524;13.340;2022-12-07T09:17:54;4.50;99.90
50067;DHT22;35952;52.524;13.340;2022-12-07T09:20:20;4.50;99.90
50067;DHT22;35952;52.524;13.340;2022-12-07T09:22:45;4.50;99.90
50067;DHT22;35952;52.524;13.340;2022-12-07T09:25:11;4.40;99.90
50067;DHT22;35952;52.524;13.340;2022-12-07T09:27:36;4.40;99.90
50067;DHT22;35952;52.524;13.340;2022-12-07T09:30:03;4.50;99.90
50067;DHT22;35952;52.524;13.340;2022-12-07T09:32:29;4.50;99.90
50067;DHT22;35952;52.524;13.340;2022-12-07T09:34:55;4.50;99.90
50067;DHT22;35952;52.524;13.340;2022-12-07T09:37:20;4.60;99.90
50067;DHT22;35952;52.524;13.340;2022-12-07T09:39:46;4.50;99.90
50067;DHT22;35952;52.524;13.340;2022-12-07T09:42:41;4.50;99.90
50067;DHT22;35952;52.524;13.340;2022-12-07T09:45:09;4.60;99.90
50067;DHT22;35952;52.524;13.340;2022-12-07T09:47:37;4.60;99.90
50067;DHT22;35952;52.524;13.340;2022-12-07T09:50:23;4.70;99.90
50067;DHT22;35952;52.524;13.340;2022-12-07T09:52:50;4.60;99.90
50067;DHT22;35952;52.524;13.340;2022-12-07T09:55:24;4.50;99.90
50067;DHT22;35952;52.524;13.340;2022-12-07T09:57:50;4.50;99.90
50067;DHT22;35952;52.524;13.340;2022-12-07T10:00:19;4.50;99.90
50067;DHT22;35952;52.524;13.340;2022-12-07T10:05:24;4.40;99.90
50067;DHT22;35952;52.524;13.340;2022-12-07T10:07:51;4.40;99.90
50067;DHT22;35952;52.524;13.340;2022-12-07T10:10:31;4.40;99.90
50067;DHT22;35952;52.524;13.340;2022-12-07T10:13:03;4.30;99.90
50067;DHT22;35952;52.524;13.340;2022-12-07T10:18:30;4.40;99.90
50067;DHT22;35952;52.524;13.340;2022-12-07T10:24:04;4.30;99.90
50067;DHT22;35952;52.524;13.340;2022-12-07T10:26:38;4.40;99.90
50067;DHT22;35952;52.524;13.340;2022-12-07T10:29:16;4.40;99.90
50067;DHT22;35952;52.524;13.340;2022-12-07T10:31:44;4.30;99.90
50067;DHT22;35952;52.524;13.340;2022-12-07T10:42:22;4.20;99.90
50067;DHT22;35952;52.524;13.340;2022-12-07T10:44:50;4.30;99.90
50067;DHT22;35952;52.524;13.340;2022-12-07T10:50:09;4.40;99.90
50067;DHT22;35952;52.524;13.340;2022-12-07T10:52:58;4.40;99.90
50067;DHT22;35952;52.524;13.340;2022-12-07T10:55:51;4.50;99.90
50067;DHT22;35952;52.524;13.340;2022-12-07T11:04:43;4.50;99.90
50067;DHT22;35952;52.524;13.340;2022-12-07T11:10:02;4.70;99.90
50067;DHT22;35952;52.524;13.340;2022-12-07T11:12:47;4.70;99.90
50067;DHT22;35952;52.524;13.340;2022-12-07T11:15:24;4.70;99.90
50067;DHT22;35952;52.524;13.340;2022-12-07T11:26:46;4.80;99.90
50067;DHT22;35952;52.524;13.340;2022-12-07T11:32:17;4.90;99.90
50067;DHT22;35952;52.524;13.340;2022-12-07T11:37:37;5.00;99.90
50067;DHT22;35952;52.524;13.340;2022-12-07T11:40:12;5.00;99.90
50067;DHT22;35952;52.524;13.340;2022-12-07T11:42:45;5.00;99.90
50067;DHT22;35952;52.524;13.340;2022-12-07T11:45:16;5.00;99.90
50067;DHT22;35952;52.524;13.340;2022-12-07T11:47:55;5.00;99.90
50067;DHT22;35952;52.524;13.340;2022-12-07T11:50:51;5.00;99.90
50067;DHT22;35952;52.524;13.340;2022-12-07T11:53:44;5.00;99.90
50067;DHT22;35952;52.524;13.340;2022-12-07T11:56:17;5.10;99.90
50067;DHT22;35952;52.524;13.340;2022-12-07T12:04:07;5.10;99.90
50067;DHT22;35952;52.524;13.340;2022-12-07T12:06:41;5.10;99.90
50067;DHT22;35952;52.524;13.340;2022-12-07T12:09:15;5.10;99.90
50067;DHT22;35952;52.524;13.340;2022-12-07T12:22:45;5.20;99.90
50067;DHT22;35952;52.524;13.340;2022-12-07T12:25:27;5.20;99.90
50067;DHT22;35952;52.524;13.340;2022-12-07T12:27:55;5.20;99.90
50067;DHT22;35952;52.524;13.340;2022-12-07T12:30:39;5.10;99.90
50067;DHT22;35952;52.524;13.340;2022-12-07T12:33:29;5.20;99.90
50067;DHT22;35952;52.524;13.340;2022-12-07T12:47:38;5.10;99.90
50067;DHT22;35952;52.524;13.340;2022-12-07T12:57:36;5.10;99.90
50067;DHT22;35952;52.524;13.340;2022-12-07T13:00:21;5.10;99.90
50067;DHT22;35952;52.524;13.340;2022-12-07T13:02:53;5.20;99.90
50067;DHT22;35952;52.524;13.340;2022-12-07T13:05:22;5.20;99.90
50067;DHT22;35952;52.524;13.340;2022-12-07T13:07:57;5.20;99.90
50067;DHT22;35952;52.524;13.340;2022-12-07T13:15:42;5.10;99.90
50067;DHT22;35952;52.524;13.340;2022-12-07T13:18:22;5.10;99.90
50067;DHT22;35952;52.524;13.340;2022-12-07T13:20:49;5.20;99.90
50067;DHT22;35952;52.524;13.340;2022-12-07T13:23:19;5.30;99.90
50067;DHT22;35952;52.524;13.340;2022-12-07T13:25:51;5.40;99.90
50067;DHT22;35952;52.524;13.340;2022-12-07T13:28:20;5.40;99.90
50067;DHT22;35952;52.524;13.340;2022-12-07T13:33:54;5.20;99.90
50067;DHT22;35952;52.524;13.340;2022-12-07T13:36:24;5.20;99.90
50067;DHT22;35952;52.524;13.340;2022-12-07T13:38:54;5.20;99.90
50067;DHT22;35952;52.524;13.340;2022-12-07T13:41:21;5.10;99.90
50067;DHT22;35952;52.524;13.340;2022-12-07T13:44:03;5.10;99.90
50067;DHT22;35952;52.524;13.340;2022-12-07T13:47:07;5.10;99.90
50067;DHT22;35952;52.524;13.340;2022-12-07T13:49:44;5.10;99.90
50067;DHT22;35952;52.524;13.340;2022-12-07T13:54:49;5.10;99.90
50067;DHT22;35952;52.524;13.340;2022-12-07T13:57:20;5.20;99.90
50067;DHT22;35952;52.524;13.340;2022-12-07T13:59:46;5.20;99.90
50067;DHT22;35952;52.524;13.340;2022-12-07T14:02:26;5.20;99.90
50067;DHT22;35952;52.524;13.340;2022-12-07T14:04:52;5.20;99.90
50067;DHT22;35952;52.524;13.340;2022-12-07T14:07:30;5.10;99.90
50067;DHT22;35952;52.524;13.340;2022-12-07T14:10:02;5.10;99.90
50067;DHT22;35952;52.524;13.340;2022-12-07T14:12:29;5.20;99.90
50067;DHT22;35952;52.524;13.340;2022-12-07T14:14:56;5.10;99.90
50067;DHT22;35952;52.524;13.340;2022-12-07T14:17:26;5.00;99.90
50067;DHT22;35952;52.524;13.340;2022-12-07T14:19:59;5.00;99.90
50067;DHT22;35952;52.524;13.340;2022-12-07T14:27:55;5.10;99.90
50067;DHT22;35952;52.524;13.340;2022-12-07T14:30:22;5.00;99.90
50067;DHT22;35952;52.524;13.340;2022-12-07T14:32:52;5.00;99.90
50067;DHT22;35952;52.524;13.340;2022-12-07T14:35:18;4.90;99.90
50067;DHT22;35952;52.524;13.340;2022-12-07T14:37:47;4.80;99.90
50067;DHT22;35952;52.524;13.340;2022-12-07T14:40:24;4.80;99.90
50067;DHT22;35952;52.524;13.340;2022-12-07T14:42:55;4.80;99.90
50067;DHT22;35952;52.524;13.340;2022-12-07T14:45:23;4.70;99.90
50067;DHT22;35952;52.524;13.340;2022-12-07T14:47:48;4.60;99.90
50067;DHT22;35952;52.524;13.340;2022-12-07T14:50:17;4.60;99.90
50067;DHT22;35952;52.524;13.340;2022-12-07T14:52:46;4.50;99.90
50067;DHT22;35952;52.524;13.340;2022-12-07T14:55:27;4.50;99.90
50067;DHT22;35952;52.524;13.340;2022-12-07T14:57:53;4.40;99.90
50067;DHT22;35952;52.524;13.340;2022-12-07T15:00:19;4.40;99.90
50067;DHT22;35952;52.524;13.340;2022-12-07T15:02:46;4.40;99.90
50067;DHT22;35952;52.524;13.340;2022-12-07T15:05:12;4.30;99.90
50067;DHT22;35952;52.524;13.340;2022-12-07T15:07:38;4.30;99.90
50067;DHT22;35952;52.524;13.340;2022-12-07T15:10:05;4.20;99.90
50067;DHT22;35952;52.524;13.340;2022-12-07T15:12:31;4.10;99.90
50067;DHT22;35952;52.524;13.340;2022-12-07T15:14:56;4.10;99.90
50067;DHT22;35952;52.524;13.340;2022-12-07T15:17:22;4.10;99.90
50067;DHT22;35952;52.524;13.340;2022-12-07T15:19:47;4.10;99.90
50067;DHT22;35952;52.524;13.340;2022-12-07T15:22:13;4.10;99.90
50067;DHT22;35952;52.524;13.340;2022-12-07T15:24:38;4.10;99.90
50067;DHT22;35952;52.524;13.340;2022-12-07T15:27:04;4.00;99.90
50067;DHT22;35952;52.524;13.340;2022-12-07T15:29:29;4.00;99.90
50067;DHT22;35952;52.524;13.340;2022-12-07T15:31:55;4.00;99.90
50067;DHT22;35952;52.524;13.340;2022-12-07T15:34:21;4.00;99.90
50067;DHT22;35952;52.524;13.340;2022-12-07T15:36:46;4.00;99.90
50067;DHT22;35952;52.524;13.340;2022-12-07T15:39:12;4.00;99.90
50067;DHT22;35952;52.524;13.340;2022-12-07T15:41:38;4.10;99.90
50067;DHT22;35952;52.524;13.340;2022-12-07T15:44:03;4.20;99.90
50067;DHT22;35952;52.524;13.340;2022-12-07T15:46:47;4.10;99.90
50067;DHT22;35952;52.524;13.340;2022-12-07T15:49:16;4.20;99.90
50067;DHT22;35952;52.524;13.340;2022-12-07T15:51:43;4.20;99.90
50067;DHT22;35952;52.524;13.340;2022-12-07T15:54:13;4.10;99.90
50067;DHT22;35952;52.524;13.340;2022-12-07T15:56:41;4.10;99.90
50067;DHT22;35952;52.524;13.340;2022-12-07T15:59:06;4.20;99.90
50067;DHT22;35952;52.524;13.340;2022-12-07T16:01:32;4.20;99.90
50067;DHT22;35952;52.524;13.340;2022-12-07T16:03:57;4.30;99.90
50067;DHT22;35952;52.524;13.340;2022-12-07T16:06:24;4.20;99.90
50067;DHT22;35952;52.524;13.340;2022-12-07T16:08:51;4.20;99.90
50067;DHT22;35952;52.524;13.340;2022-12-07T16:11:16;4.20;99.90
50067;DHT22;35952;52.524;13.340;2022-12-07T16:13:42;4.00;99.90
50067;DHT22;35952;52.524;13.340;2022-12-07T16:16:11;4.00;99.90
50067;DHT22;35952;52.524;13.340;2022-12-07T16:18:37;4.00;99.90
50067;DHT22;35952;52.524;13.340;2022-12-07T16:21:03;3.90;99.90
50067;DHT22;35952;52.524;13.340;2022-12-07T16:23:29;3.90;99.90
50067;DHT22;35952;52.524;13.340;2022-12-07T16:26:04;3.70;99.90
50067;DHT22;35952;52.524;13.340;2022-12-07T16:28:29;3.70;99.90
50067;DHT22;35952;52.524;13.340;2022-12-07T16:31:03;3.70;99.90
50067;DHT22;35952;52.524;13.340;2022-12-07T16:33:28;3.70;99.90
50067;DHT22;35952;52.524;13.340;2022-12-07T16:35:54;3.60;99.90
50067;DHT22;35952;52.524;13.340;2022-12-07T16:38:19;3.70;99.90
50067;DHT22;35952;52.524;13.340;2022-12-07T16:40:50;3.70;99.90
50067;DHT22;35952;52.524;13.340;2022-12-07T16:43:15;3.60;99.90
50067;DHT22;35952;52.524;13.340;2022-12-07T16:45:41;3.70;99.90
50067;DHT22;35952;52.524;13.340;2022-12-07T16:48:07;3.70;99.90
50067;DHT22;35952;52.524;13.340;2022-12-07T16:50:32;3.60;99.90
50067;DHT22;35952;52.524;13.340;2022-12-07T16:52:58;3.60;99.90
50067;DHT22;35952;52.524;13.340;2022-12-07T16:55:24;3.50;99.90
50067;DHT22;35952;52.524;13.340;2022-12-07T16:57:49;3.50;99.90
50067;DHT22;35952;52.524;13.340;2022-12-07T17:00:15;3.50;99.90
50067;DHT22;35952;52.524;13.340;2022-12-07T17:02:41;3.50;99.90
50067;DHT22;35952;52.524;13.340;2022-12-07T17:05:07;3.50;99.90
50067;DHT22;35952;52.524;13.340;2022-12-07T17:07:33;3.50;99.90
50067;DHT22;35952;52.524;13.340;2022-12-07T17:09:59;3.50;99.90
50067;DHT22;35952;52.524;13.340;2022-12-07T17:12:24;3.40;99.90
50067;DHT22;35952;52.524;13.340;2022-12-07T17:14:51;3.40;99.90
50067;DHT22;35952;52.524;13.340;2022-12-07T17:17:35;3.30;99.90
50067;DHT22;35952;52.524;13.340;2022-12-07T17:20:00;3.30;99.90
50067;DHT22;35952;52.524;13.340;2022-12-07T17:22:26;3.30;99.90
50067;DHT22;35952;52.524;13.340;2022-12-07T17:24:51;3.30;99.90
50067;DHT22;35952;52.524;13.340;2022-12-07T17:27:17;3.30;99.90
50067;DHT22;35952;52.524;13.340;2022-12-07T17:29:43;3.30;99.90
50067;DHT22;35952;52.524;13.340;2022-12-07T17:32:08;3.30;99.90
50067;DHT22;35952;52.524;13.340;2022-12-07T17:34:34;3.20;99.90
50067;DHT22;35952;52.524;13.340;2022-12-07T17:37:02;3.30;99.90
50067;DHT22;35952;52.524;13.340;2022-12-07T17:39:28;3.30;99.90
50067;DHT22;35952;52.524;13.340;2022-12-07T17:41:54;3.20;99.90
50067;DHT22;35952;52.524;13.340;2022-12-07T17:44:38;3.20;99.90
50067;DHT22;35952;52.524;13.340;2022-12-07T17:47:05;3.20;99.90